Time;durP1;ratioP1;P1;durP2;ratioP2;P2;SDS_P1;SDS_P2;PMS_P1;PMS_P2;Temp;Humidity;BMP_temperature;BMP_pressure;BME280_temperature;BME280_humidity;BME280_pressure;Samples;Min_cycle;Max_cycle;Signal;HPM_P1;HPM_P2
2021/07/03 00:00:08;;;;;;;11.18;7.43;;;;;;;;;;4944476;28;20046;-84
2021/07/03 00:02:53;;;;;;;12.68;7.65;;;;;;;;;;4945410;28;20051;-84
2021/07/03 00:05:38;;;;;;;11.30;7.88;;;;;;;;;;4940613;28;20066;-85
2021/07/03 00:08:27;;;;;;;12.40;8.52;;;;;;;;;;4935985;28;20063;-85
2021/07/03 00:11:12;;;;;;;12.27;8.93;;;;;;;;;;4941393;28;20494;-84
2021/07/03 00:13:58;;;;;;;15.35;8.65;;;;;;;;;;4938583;28;20053;-85
2021/07/03 00:16:43;;;;;;;13.45;9.48;;;;;;;;;;4941327;28;20042;-84
2021/07/03 00:19:28;;;;;;;13.75;8.45;;;;;;;;;;4937768;28;20027;-85
2021/07/03 00:22:13;;;;;;;10.30;7.35;;;;;;;;;;4926631;29;20098;-84
2021/07/03 00:24:58;;;;;;;12.23;7.80;;;;;;;;;;4942489;28;20456;-85
2021/07/03 00:27:44;;;;;;;10.43;7.60;;;;;;;;;;4942888;28;20405;-85
2021/07/03 00:30:29;;;;;;;12.88;8.35;;;;;;;;;;4926632;29;20135;-85
2021/07/03 00:33:14;;;;;;;12.05;7.72;;;;;;;;;;4941062;28;20039;-86
2021/07/03 00:36:00;;;;;;;11.10;8.27;;;;;;;;;;4940292;28;21087;-85
2021/07/03 00:38:45;;;;;;;12.93;8.38;;;;;;;;;;4937817;28;20389;-85
2021/07/03 00:41:30;;;;;;;11.00;7.97;;;;;;;;;;4933507;28;20031;-85
2021/07/03 00:44:29;;;;;;;12.05;8.63;;;;;;;;;;4932436;28;20031;-85
2021/07/03 00:47:14;;;;;;;12.63;8.35;;;;;;;;;;4945720;28;20433;-85
2021/07/03 00:50:00;;;;;;;11.65;8.05;;;;;;;;;;4943129;28;20023;-83
2021/07/03 00:52:45;;;;;;;15.07;8.20;;;;;;;;;;4935619;28;20348;-84
2021/07/03 00:55:31;;;;;;;12.25;8.00;;;;;;;;;;4936010;28;20032;-83
2021/07/03 00:58:17;;;;;;;10.18;7.60;;;;;;;;;;4938046;28;20394;-84
2021/07/03 01:01:02;;;;;;;11.65;7.70;;;;;;;;;;4938654;29;20397;-84
2021/07/03 01:03:47;;;;;;;12.20;8.20;;;;;;;;;;4941764;28;20030;-84
2021/07/03 01:06:33;;;;;;;10.63;7.82;;;;;;;;;;4939200;28;20023;-84
2021/07/03 01:09:18;;;;;;;12.55;8.40;;;;;;;;;;4926011;28;20042;-83
2021/07/03 01:12:04;;;;;;;13.43;8.55;;;;;;;;;;4936356;29;20053;-83
2021/07/03 01:14:50;;;;;;;14.23;8.15;;;;;;;;;;4932961;28;20050;-84
2021/07/03 01:17:36;;;;;;;15.15;8.75;;;;;;;;;;4942700;28;20037;-83
2021/07/03 01:20:21;;;;;;;11.38;7.90;;;;;;;;;;4936091;28;20035;-82
2021/07/03 01:23:06;;;;;;;10.35;8.23;;;;;;;;;;4945005;28;20023;-83
2021/07/03 01:25:56;;;;;;;11.73;8.15;;;;;;;;;;4937894;28;20367;-84
2021/07/03 01:28:41;;;;;;;12.13;7.78;;;;;;;;;;4937792;29;20370;-83
2021/07/03 01:31:26;;;;;;;12.40;7.80;;;;;;;;;;4938551;28;20035;-83
2021/07/03 01:34:13;;;;;;;11.68;8.45;;;;;;;;;;4939361;29;20434;-83
2021/07/03 01:36:58;;;;;;;14.85;8.80;;;;;;;;;;4921210;28;20042;-84
2021/07/03 01:39:44;;;;;;;13.05;9.10;;;;;;;;;;4956547;28;20650;-83
2021/07/03 01:42:29;;;;;;;12.88;8.15;;;;;;;;;;4941318;28;20097;-84
2021/07/03 01:45:14;;;;;;;11.98;9.32;;;;;;;;;;4937353;28;20070;-84
2021/07/03 01:47:59;;;;;;;13.45;8.23;;;;;;;;;;4927867;28;20039;-85
2021/07/03 01:50:44;;;;;;;10.13;7.35;;;;;;;;;;4936778;28;20042;-85
2021/07/03 01:53:30;;;;;;;15.65;8.98;;;;;;;;;;4942864;28;20030;-83
2021/07/03 01:56:15;;;;;;;11.73;7.63;;;;;;;;;;4937048;28;20023;-84
2021/07/03 01:59:00;;;;;;;11.75;8.27;;;;;;;;;;4935912;29;20023;-84
2021/07/03 02:01:45;;;;;;;12.52;8.98;;;;;;;;;;4927217;28;20177;-85
2021/07/03 02:04:31;;;;;;;10.45;7.93;;;;;;;;;;4945638;28;20089;-84
2021/07/03 02:07:16;;;;;;;11.82;7.72;;;;;;;;;;4933387;28;20051;-83
2021/07/03 02:10:01;;;;;;;10.98;7.85;;;;;;;;;;4939451;29;20622;-84
2021/07/03 02:12:46;;;;;;;12.68;8.25;;;;;;;;;;4938174;28;20030;-84
2021/07/03 02:15:32;;;;;;;10.68;7.95;;;;;;;;;;4941830;28;20149;-83
2021/07/03 02:18:17;;;;;;;13.70;8.45;;;;;;;;;;4938334;28;20552;-83
2021/07/03 02:21:03;;;;;;;13.02;8.80;;;;;;;;;;4940779;28;20069;-83
2021/07/03 02:23:48;;;;;;;12.02;8.07;;;;;;;;;;4924866;28;20028;-82
2021/07/03 02:26:33;;;;;;;12.82;8.50;;;;;;;;;;4938371;28;20023;-83
2021/07/03 02:29:18;;;;;;;12.75;8.65;;;;;;;;;;4933622;28;20038;-83
2021/07/03 02:32:04;;;;;;;14.82;7.72;;;;;;;;;;4938373;28;20377;-84
2021/07/03 02:34:49;;;;;;;10.23;7.95;;;;;;;;;;4945688;28;20469;-84
2021/07/03 02:37:35;;;;;;;11.65;8.43;;;;;;;;;;4939604;29;20035;-84
2021/07/03 02:40:20;;;;;;;13.18;8.77;;;;;;;;;;4938046;28;20031;-84
2021/07/03 02:43:05;;;;;;;12.57;7.88;;;;;;;;;;4935420;28;20042;-84
2021/07/03 02:45:50;;;;;;;9.77;7.82;;;;;;;;;;4946647;28;20022;-84
2021/07/03 02:48:35;;;;;;;15.80;8.20;;;;;;;;;;4923932;28;20030;-85
2021/07/03 02:51:21;;;;;;;10.40;7.53;;;;;;;;;;4935751;28;20039;-85
2021/07/03 02:54:06;;;;;;;11.30;7.88;;;;;;;;;;4932145;28;20477;-85
2021/07/03 02:56:57;;;;;;;13.18;8.18;;;;;;;;;;4934670;28;20038;-85
2021/07/03 02:59:42;;;;;;;14.18;8.65;;;;;;;;;;4934685;28;20124;-85
2021/07/03 03:02:27;;;;;;;10.77;7.97;;;;;;;;;;4941657;28;20077;-84
2021/07/03 03:05:13;;;;;;;12.18;8.70;;;;;;;;;;4936845;28;20118;-83
2021/07/03 03:07:59;;;;;;;12.30;8.88;;;;;;;;;;4935611;28;20066;-83
2021/07/03 03:10:44;;;;;;;11.55;7.40;;;;;;;;;;4935911;28;20023;-82
2021/07/03 03:13:29;;;;;;;10.68;7.43;;;;;;;;;;4938350;28;20131;-84
2021/07/03 03:16:15;;;;;;;10.35;7.68;;;;;;;;;;4930593;29;20044;-84
2021/07/03 03:19:00;;;;;;;11.32;7.68;;;;;;;;;;4944020;28;20033;-83
2021/07/03 03:21:45;;;;;;;12.43;8.18;;;;;;;;;;4937032;28;20622;-83
2021/07/03 03:24:30;;;;;;;13.07;8.00;;;;;;;;;;4931317;28;20027;-83
2021/07/03 03:27:16;;;;;;;10.85;8.00;;;;;;;;;;4937541;28;20038;-84
2021/07/03 03:30:01;;;;;;;11.73;8.30;;;;;;;;;;4935690;28;20169;-83
2021/07/03 03:32:46;;;;;;;9.23;7.25;;;;;;;;;;4931042;28;20019;-83
2021/07/03 03:35:31;;;;;;;13.10;8.02;;;;;;;;;;4945330;28;20019;-83
2021/07/03 03:38:17;;;;;;;10.00;7.32;;;;;;;;;;4944093;28;20027;-82
2021/07/03 03:41:02;;;;;;;10.38;6.78;;;;;;;;;;4940266;28;20181;-83
2021/07/03 03:43:47;;;;;;;13.88;8.00;;;;;;;;;;4944858;28;20034;-83
2021/07/03 03:46:32;;;;;;;10.18;7.00;;;;;;;;;;4933409;29;20038;-83
2021/07/03 03:49:19;;;;;;;11.25;7.97;;;;;;;;;;4942890;28;20066;-83
2021/07/03 03:52:04;;;;;;;10.48;7.57;;;;;;;;;;4934586;28;20324;-83
2021/07/03 03:54:49;;;;;;;12.88;7.60;;;;;;;;;;4937607;28;20081;-84
2021/07/03 03:57:35;;;;;;;12.00;8.30;;;;;;;;;;4936617;28;20027;-83
2021/07/03 04:00:20;;;;;;;10.00;7.05;;;;;;;;;;4941861;28;20058;-84
2021/07/03 04:03:05;;;;;;;11.70;8.55;;;;;;;;;;4941749;28;20031;-84
2021/07/03 04:05:50;;;;;;;11.88;7.40;;;;;;;;;;4938072;28;20112;-84
2021/07/03 04:08:36;;;;;;;13.35;7.75;;;;;;;;;;4943589;28;20035;-85
2021/07/03 04:11:22;;;;;;;9.75;7.75;;;;;;;;;;4922377;28;20027;-84
2021/07/03 04:14:07;;;;;;;11.77;7.72;;;;;;;;;;4942322;28;20391;-84
2021/07/03 04:16:52;;;;;;;11.23;7.82;;;;;;;;;;4938265;28;20050;-84
2021/07/03 04:19:38;;;;;;;10.98;7.93;;;;;;;;;;4945080;28;20057;-83
2021/07/03 04:22:23;;;;;;;11.93;8.13;;;;;;;;;;4936011;28;20579;-83
2021/07/03 04:25:15;;;;;;;12.63;7.30;;;;;;;;;;4945424;28;20027;-84
2021/07/03 04:28:00;;;;;;;11.05;7.50;;;;;;;;;;4938616;28;20037;-84
2021/07/03 04:30:45;;;;;;;10.43;7.45;;;;;;;;;;4939458;28;20455;-83
2021/07/03 04:33:31;;;;;;;10.80;7.63;;;;;;;;;;4939653;28;20023;-83
2021/07/03 04:36:16;;;;;;;11.38;8.00;;;;;;;;;;4942104;29;20470;-84
2021/07/03 04:39:01;;;;;;;10.75;8.40;;;;;;;;;;4942255;28;20074;-84
2021/07/03 04:41:47;;;;;;;12.48;7.95;;;;;;;;;;4939352;28;20051;-83
2021/07/03 04:44:32;;;;;;;9.43;7.13;;;;;;;;;;4945020;28;20113;-84
2021/07/03 04:47:17;;;;;;;11.23;8.05;;;;;;;;;;4943797;28;20034;-84
2021/07/03 04:50:03;;;;;;;9.85;7.38;;;;;;;;;;4926307;28;20027;-84
2021/07/03 04:52:48;;;;;;;10.20;7.35;;;;;;;;;;4938196;29;20027;-83
2021/07/03 04:55:34;;;;;;;13.90;7.72;;;;;;;;;;4936819;28;20122;-83
2021/07/03 04:58:19;;;;;;;13.38;7.05;;;;;;;;;;4935778;28;20028;-83
2021/07/03 05:01:04;;;;;;;10.65;8.40;;;;;;;;;;4942282;28;20031;-83
2021/07/03 05:03:49;;;;;;;10.77;7.75;;;;;;;;;;4938236;28;20027;-83
2021/07/03 05:06:35;;;;;;;14.40;8.65;;;;;;;;;;4921884;28;20091;-83
2021/07/03 05:09:20;;;;;;;12.30;7.53;;;;;;;;;;4921293;28;20032;-85
2021/07/03 05:12:05;;;;;;;12.18;7.28;;;;;;;;;;4937628;28;20022;-85
2021/07/03 05:14:51;;;;;;;16.35;8.65;;;;;;;;;;4935997;28;20036;-84
2021/07/03 05:17:36;;;;;;;8.77;6.63;;;;;;;;;;4943284;28;20046;-84
2021/07/03 05:20:21;;;;;;;14.60;8.43;;;;;;;;;;4941429;28;20026;-84
2021/07/03 05:23:06;;;;;;;9.98;7.07;;;;;;;;;;4937607;28;20031;-84
2021/07/03 05:25:54;;;;;;;12.15;8.25;;;;;;;;;;4945195;28;20030;-84
2021/07/03 05:28:39;;;;;;;13.23;8.00;;;;;;;;;;4941135;28;20548;-84
2021/07/03 05:31:24;;;;;;;11.20;7.72;;;;;;;;;;4938040;28;20110;-84
2021/07/03 05:34:10;;;;;;;11.38;7.65;;;;;;;;;;4939397;28;20442;-85
2021/07/03 05:36:56;;;;;;;11.13;7.18;;;;;;;;;;4939909;28;20062;-87
2021/07/03 05:39:41;;;;;;;12.13;7.88;;;;;;;;;;4941635;28;20050;-85
2021/07/03 05:42:26;;;;;;;12.68;6.85;;;;;;;;;;4936493;29;20490;-87
2021/07/03 05:45:16;;;;;;;9.88;7.25;;;;;;;;;;4934710;28;20055;-87
2021/07/03 05:48:02;;;;;;;9.10;6.57;;;;;;;;;;4940168;28;20454;-86
2021/07/03 05:50:47;;;;;;;10.45;6.93;;;;;;;;;;4931252;28;20031;-85
2021/07/03 05:53:32;;;;;;;11.02;7.13;;;;;;;;;;4937737;28;20110;-86
2021/07/03 05:56:17;;;;;;;11.35;7.88;;;;;;;;;;4935320;28;20659;-84
2021/07/03 05:59:03;;;;;;;10.93;7.03;;;;;;;;;;4946984;28;20615;-84
2021/07/03 06:01:48;;;;;;;9.57;7.32;;;;;;;;;;4923022;28;20046;-83
2021/07/03 06:04:34;;;;;;;8.63;6.82;;;;;;;;;;4937392;28;20079;-85
2021/07/03 06:07:19;;;;;;;8.43;6.50;;;;;;;;;;4934101;28;20031;-84
2021/07/03 06:10:04;;;;;;;8.63;6.70;;;;;;;;;;4940836;28;20046;-85
2021/07/03 06:12:50;;;;;;;11.90;7.32;;;;;;;;;;4941341;28;20458;-88
2021/07/03 06:15:35;;;;;;;8.52;6.50;;;;;;;;;;4944962;28;20035;-89
2021/07/03 06:18:20;;;;;;;8.57;5.88;;;;;;;;;;4939241;28;20035;-86
2021/07/03 06:21:06;;;;;;;11.43;6.68;;;;;;;;;;4922371;28;20031;-86
2021/07/03 06:23:51;;;;;;;9.15;7.00;;;;;;;;;;4939851;28;20054;-85
2021/07/03 06:26:36;;;;;;;9.30;6.32;;;;;;;;;;4940130;28;20036;-85
2021/07/03 06:29:22;;;;;;;8.45;6.13;;;;;;;;;;4933841;28;20543;-84
2021/07/03 06:32:07;;;;;;;9.63;6.70;;;;;;;;;;4933101;28;20054;-85
2021/07/03 06:34:52;;;;;;;9.93;6.68;;;;;;;;;;4933456;28;20033;-87
2021/07/03 06:37:38;;;;;;;8.50;6.15;;;;;;;;;;4927744;28;20058;-86
2021/07/03 06:40:23;;;;;;;12.00;6.68;;;;;;;;;;4941020;28;20118;-89
2021/07/03 06:43:09;;;;;;;8.05;5.90;;;;;;;;;;4935867;28;20038;-86
2021/07/03 06:45:54;;;;;;;8.48;6.30;;;;;;;;;;4937107;28;20042;-88
2021/07/03 06:48:39;;;;;;;8.25;6.22;;;;;;;;;;4933547;29;20475;-90
2021/07/03 06:51:24;;;;;;;9.43;6.10;;;;;;;;;;4931907;28;20039;-86
2021/07/03 06:54:10;;;;;;;7.90;6.03;;;;;;;;;;4931933;28;20599;-85
2021/07/03 06:56:58;;;;;;;8.68;6.32;;;;;;;;;;4910967;28;20509;-88
2021/07/03 06:59:43;;;;;;;10.30;6.15;;;;;;;;;;4947485;28;20064;-90
2021/07/03 07:02:29;;;;;;;7.88;6.18;;;;;;;;;;4941820;28;20113;-87
2021/07/03 07:05:14;;;;;;;7.97;6.05;;;;;;;;;;4940278;28;20024;-84
2021/07/03 07:07:59;;;;;;;9.70;6.47;;;;;;;;;;4943753;28;20061;-86
2021/07/03 07:10:44;;;;;;;8.73;5.47;;;;;;;;;;4938692;28;20478;-82
2021/07/03 07:13:30;;;;;;;8.93;5.60;;;;;;;;;;4933843;28;20521;-83
2021/07/03 07:16:15;;;;;;;11.98;6.40;;;;;;;;;;4936380;28;20067;-80
2021/07/03 07:19:00;;;;;;;7.32;5.53;;;;;;;;;;4934540;28;20035;-83
2021/07/03 07:21:46;;;;;;;8.38;5.82;;;;;;;;;;4934270;29;20027;-83
2021/07/03 07:24:31;;;;;;;7.95;5.57;;;;;;;;;;4935516;28;20094;-84
2021/07/03 07:27:17;;;;;;;9.57;5.97;;;;;;;;;;4942711;28;20039;-83
2021/07/03 07:30:02;;;;;;;7.32;5.53;;;;;;;;;;4939756;28;20114;-83
2021/07/03 07:32:48;;;;;;;7.97;5.63;;;;;;;;;;4923237;28;20034;-83
2021/07/03 07:35:33;;;;;;;9.07;5.88;;;;;;;;;;4933929;28;20023;-83
2021/07/03 07:38:18;;;;;;;9.77;5.38;;;;;;;;;;4936717;28;20020;-85
2021/07/03 07:41:04;;;;;;;8.30;5.95;;;;;;;;;;4933809;28;20034;-84
2021/07/03 07:43:49;;;;;;;7.68;5.78;;;;;;;;;;4931687;28;20028;-82
2021/07/03 07:46:34;;;;;;;6.75;5.65;;;;;;;;;;4923316;28;20031;-82
2021/07/03 07:49:20;;;;;;;8.75;6.60;;;;;;;;;;4938433;28;20066;-85
2021/07/03 07:52:05;;;;;;;7.70;5.80;;;;;;;;;;4938648;28;20019;-82
2021/07/03 07:54:50;;;;;;;8.93;5.97;;;;;;;;;;4939582;28;20363;-84
2021/07/03 07:57:36;;;;;;;7.28;5.75;;;;;;;;;;4935367;28;20601;-83
2021/07/03 08:00:22;;;;;;;7.40;5.85;;;;;;;;;;4930445;28;20069;-84
2021/07/03 08:03:07;;;;;;;8.38;5.85;;;;;;;;;;4939016;28;20027;-83
2021/07/03 08:05:53;;;;;;;9.95;6.10;;;;;;;;;;4928296;28;20114;-83
2021/07/03 08:08:38;;;;;;;8.02;5.63;;;;;;;;;;4940495;28;20442;-83
2021/07/03 08:11:23;;;;;;;8.02;5.80;;;;;;;;;;4937196;28;20027;-82
2021/07/03 08:14:08;;;;;;;8.10;5.80;;;;;;;;;;4933025;28;20280;-84
2021/07/03 08:16:54;;;;;;;9.77;6.22;;;;;;;;;;4929129;29;20375;-83
2021/07/03 08:19:39;;;;;;;7.88;6.05;;;;;;;;;;4945471;28;20552;-83
2021/07/03 08:22:25;;;;;;;10.27;6.07;;;;;;;;;;4942269;28;20469;-84
2021/07/03 08:25:10;;;;;;;9.10;5.95;;;;;;;;;;4939395;29;20470;-84
2021/07/03 08:27:56;;;;;;;10.00;5.93;;;;;;;;;;4925491;28;20031;-84
2021/07/03 08:30:41;;;;;;;7.13;5.40;;;;;;;;;;4940505;28;20030;-84
2021/07/03 08:33:26;;;;;;;10.30;5.22;;;;;;;;;;4936246;28;20478;-86
2021/07/03 08:36:11;;;;;;;8.98;5.20;;;;;;;;;;4933032;28;20031;-84
2021/07/03 08:38:57;;;;;;;8.15;5.80;;;;;;;;;;4941457;28;20126;-83
2021/07/03 08:41:42;;;;;;;7.95;5.55;;;;;;;;;;4935835;28;20023;-84
2021/07/03 08:44:27;;;;;;;7.70;5.40;;;;;;;;;;4934586;29;20466;-83
2021/07/03 08:47:13;;;;;;;8.52;5.55;;;;;;;;;;4936840;28;20790;-83
2021/07/03 08:50:00;;;;;;;11.07;5.35;;;;;;;;;;4918093;28;20508;-82
2021/07/03 08:52:46;;;;;;;6.15;4.80;;;;;;;;;;4939569;28;20019;-83
2021/07/03 08:55:31;;;;;;;6.90;4.85;;;;;;;;;;4940916;28;20027;-85
2021/07/03 08:58:16;;;;;;;6.90;4.90;;;;;;;;;;4938349;28;20442;-86
2021/07/03 09:01:02;;;;;;;8.02;4.95;;;;;;;;;;4937568;28;20027;-87
2021/07/03 09:03:55;;;;;;;6.40;4.97;;;;;;;;;;4939195;28;20023;-87
2021/07/03 09:06:40;;;;;;;7.05;5.05;;;;;;;;;;4933475;29;20119;-88
2021/07/03 09:09:25;;;;;;;6.45;4.45;;;;;;;;;;4945371;28;20030;-88
2021/07/03 09:12:10;;;;;;;7.00;5.38;;;;;;;;;;4941819;28;20019;-87
2021/07/03 09:15:12;;;;;;;8.15;4.88;;;;;;;;;;4940106;28;20044;-86
2021/07/03 09:18:05;;;;;;;8.73;6.10;;;;;;;;;;4939226;28;20027;-85
2021/07/03 09:20:51;;;;;;;12.48;4.72;;;;;;;;;;4924344;28;20027;-87
2021/07/03 09:23:38;;;;;;;9.35;6.10;;;;;;;;;;4935227;28;20045;-86
2021/07/03 09:26:23;;;;;;;6.75;5.10;;;;;;;;;;4929793;28;20500;-89
2021/07/03 09:29:09;;;;;;;7.05;5.40;;;;;;;;;;4934532;28;20024;-89
2021/07/03 09:32:05;;;;;;;10.05;6.30;;;;;;;;;;4943713;28;20478;-89
2021/07/03 09:34:50;;;;;;;10.40;5.75;;;;;;;;;;4934190;28;20016;-88
2021/07/03 09:37:36;;;;;;;18.50;10.27;;;;;;;;;;4948201;28;20039;-84
2021/07/03 09:40:21;;;;;;;32.35;10.20;;;;;;;;;;4941780;28;20035;-84
2021/07/03 09:43:10;;;;;;;18.50;7.57;;;;;;;;;;4944349;28;20027;-86
2021/07/03 09:45:55;;;;;;;9.85;5.28;;;;;;;;;;4924294;28;20110;-85
2021/07/03 09:48:53;;;;;;;14.20;6.25;;;;;;;;;;4940434;28;20054;-87
2021/07/03 09:51:41;;;;;;;10.30;5.80;;;;;;;;;;4943614;28;20026;-85
2021/07/03 09:54:27;;;;;;;16.13;7.72;;;;;;;;;;4946301;28;20494;-86
2021/07/03 09:57:13;;;;;;;11.65;6.00;;;;;;;;;;4926537;28;20035;-87
2021/07/03 09:59:58;;;;;;;17.80;8.10;;;;;;;;;;4933167;28;20046;-84
2021/07/03 10:02:43;;;;;;;7.95;5.32;;;;;;;;;;4920416;28;20477;-83
2021/07/03 10:05:29;;;;;;;13.43;5.60;;;;;;;;;;4930929;28;20039;-84
2021/07/03 10:08:19;;;;;;;13.65;7.25;;;;;;;;;;4929500;28;20625;-85
2021/07/03 10:11:04;;;;;;;9.88;6.45;;;;;;;;;;4928864;28;20034;-84
2021/07/03 10:13:56;;;;;;;6.30;4.80;;;;;;;;;;4917853;29;20118;-84
2021/07/03 10:16:42;;;;;;;9.48;6.10;;;;;;;;;;4934950;28;20034;-86
2021/07/03 10:19:34;;;;;;;6.95;4.75;;;;;;;;;;4925196;28;20058;-81
2021/07/03 10:22:21;;;;;;;9.93;5.90;;;;;;;;;;4936125;28;20031;-85
2021/07/03 10:25:11;;;;;;;9.15;5.63;;;;;;;;;;4937470;29;20091;-80
2021/07/03 10:27:58;;;;;;;8.45;5.45;;;;;;;;;;4934977;28;20031;-81
2021/07/03 10:30:45;;;;;;;9.10;4.88;;;;;;;;;;4936047;28;20074;-81
2021/07/03 10:33:39;;;;;;;9.57;6.15;;;;;;;;;;4937472;28;20062;-80
2021/07/03 10:36:31;;;;;;;8.15;5.72;;;;;;;;;;4931918;28;20035;-80
2021/07/03 10:39:18;;;;;;;8.65;6.13;;;;;;;;;;4934763;28;20465;-81
2021/07/03 10:42:03;;;;;;;8.43;5.35;;;;;;;;;;4936972;28;20147;-81
2021/07/03 10:44:49;;;;;;;8.52;5.95;;;;;;;;;;4938569;28;20034;-82
2021/07/03 10:47:34;;;;;;;8.82;5.40;;;;;;;;;;4938040;28;20126;-82
2021/07/03 10:50:21;;;;;;;7.50;4.93;;;;;;;;;;4944206;29;20676;-81
2021/07/03 10:53:06;;;;;;;8.27;5.22;;;;;;;;;;4943039;28;20074;-81
2021/07/03 10:55:52;;;;;;;10.75;5.63;;;;;;;;;;4937387;29;20041;-81
2021/07/03 10:58:38;;;;;;;7.63;4.97;;;;;;;;;;4943459;29;20027;-80
2021/07/03 11:01:33;;;;;;;8.57;5.65;;;;;;;;;;4941177;28;20029;-81
2021/07/03 11:04:20;;;;;;;6.57;4.68;;;;;;;;;;4937745;28;20114;-80
2021/07/03 11:07:10;;;;;;;10.38;5.45;;;;;;;;;;4940945;28;20058;-81
2021/07/03 11:10:25;;;;;;;6.97;5.18;;;;;;;;;;4935409;28;20023;-79
2021/07/03 11:13:17;;;;;;;8.07;5.40;;;;;;;;;;4939254;28;20393;-78
2021/07/03 11:16:03;;;;;;;6.78;4.97;;;;;;;;;;4934620;28;20039;-79
2021/07/03 11:18:48;;;;;;;10.05;5.40;;;;;;;;;;4936843;29;20031;-80
2021/07/03 11:21:33;;;;;;;7.07;4.72;;;;;;;;;;4941045;28;20035;-82
2021/07/03 11:24:21;;;;;;;8.75;4.93;;;;;;;;;;4933130;28;20028;-80
2021/07/03 11:27:06;;;;;;;8.35;4.93;;;;;;;;;;4943604;28;20166;-81
2021/07/03 11:29:51;;;;;;;6.50;4.90;;;;;;;;;;4932460;29;20023;-81
2021/07/03 11:32:46;;;;;;;6.57;4.60;;;;;;;;;;4942355;28;20031;-79
2021/07/03 11:35:32;;;;;;;6.75;4.57;;;;;;;;;;4935309;28;20517;-80
2021/07/03 11:38:18;;;;;;;6.88;4.70;;;;;;;;;;4940166;28;20035;-79
2021/07/03 11:41:04;;;;;;;6.63;4.45;;;;;;;;;;4942505;29;20028;-79
2021/07/03 11:44:02;;;;;;;6.68;4.68;;;;;;;;;;4934217;28;20047;-79
2021/07/03 11:46:51;;;;;;;6.63;5.07;;;;;;;;;;4936437;28;20050;-79
2021/07/03 11:49:40;;;;;;;8.10;5.35;;;;;;;;;;4937968;28;20095;-80
2021/07/03 11:52:25;;;;;;;7.85;4.57;;;;;;;;;;4947189;28;20035;-80
2021/07/03 11:55:11;;;;;;;6.03;4.45;;;;;;;;;;4930111;28;20430;-83
2021/07/03 11:57:57;;;;;;;7.88;4.60;;;;;;;;;;4940080;29;20122;-81
2021/07/03 12:00:46;;;;;;;5.38;4.32;;;;;;;;;;4941673;28;20045;-82
2021/07/03 12:03:33;;;;;;;6.57;4.25;;;;;;;;;;4935223;28;20039;-82
2021/07/03 12:06:20;;;;;;;6.78;4.70;;;;;;;;;;4937677;28;20031;-83
2021/07/03 12:09:17;;;;;;;10.68;5.05;;;;;;;;;;4939179;28;20142;-82
2021/07/03 12:12:06;;;;;;;9.15;5.65;;;;;;;;;;4928203;28;20023;-81
2021/07/03 12:14:58;;;;;;;9.50;5.10;;;;;;;;;;4932720;29;20047;-81
2021/07/03 12:17:47;;;;;;;8.80;5.80;;;;;;;;;;4925114;29;20447;-81
2021/07/03 12:20:32;;;;;;;9.35;5.45;;;;;;;;;;4933348;29;20044;-81
2021/07/03 12:23:22;;;;;;;10.80;5.63;;;;;;;;;;4940958;29;20045;-81
2021/07/03 12:26:07;;;;;;;13.70;6.10;;;;;;;;;;4927165;29;20121;-81
2021/07/03 12:28:59;;;;;;;8.48;5.90;;;;;;;;;;4936877;29;20027;-80
2021/07/03 12:31:45;;;;;;;8.48;4.65;;;;;;;;;;4921440;29;20156;-81
2021/07/03 12:34:34;;;;;;;10.38;5.40;;;;;;;;;;4933218;29;20071;-81
2021/07/03 12:37:20;;;;;;;;;;;;;;;;;;4932879;29;20451;-81
2021/07/03 12:40:15;;;;;;;8.32;5.40;;;;;;;;;;4930242;29;19911;-81
2021/07/03 12:43:01;;;;;;;6.30;4.57;;;;;;;;;;4935408;29;20040;-81
2021/07/03 12:45:56;;;;;;;8.55;5.03;;;;;;;;;;4930753;29;20023;-83
2021/07/03 12:48:43;;;;;;;8.20;5.72;;;;;;;;;;4937229;29;20028;-82
2021/07/03 12:51:29;;;;;;;8.90;5.88;;;;;;;;;;4929843;29;20502;-82
2021/07/03 12:54:15;;;;;;;10.23;5.05;;;;;;;;;;4932772;29;20031;-81
2021/07/03 12:57:00;;;;;;;6.28;4.35;;;;;;;;;;4929509;29;20039;-82
2021/07/03 12:59:46;;;;;;;11.88;5.38;;;;;;;;;;4934642;29;20650;-81
2021/07/03 13:02:31;;;;;;;6.88;4.97;;;;;;;;;;4932610;29;20035;-81
2021/07/03 13:05:16;;;;;;;8.13;5.20;;;;;;;;;;4933995;29;20086;-81
2021/07/03 13:08:01;;;;;;;9.43;5.68;;;;;;;;;;4928353;29;20049;-82
2021/07/03 13:10:47;;;;;;;7.13;4.57;;;;;;;;;;4925779;29;20114;-85
2021/07/03 13:13:32;;;;;;;5.70;3.88;;;;;;;;;;4928631;29;20383;-82
2021/07/03 13:16:17;;;;;;;6.10;4.32;;;;;;;;;;4932020;29;20485;-82
2021/07/03 13:19:03;;;;;;;10.27;4.80;;;;;;;;;;4927639;29;20218;-82
2021/07/03 13:21:48;;;;;;;8.45;4.85;;;;;;;;;;4923784;29;20505;-82
2021/07/03 13:24:33;;;;;;;8.45;5.18;;;;;;;;;;4935724;29;20034;-82
2021/07/03 13:27:18;;;;;;;6.68;5.32;;;;;;;;;;4928787;29;20075;-82
2021/07/03 13:30:04;;;;;;;11.77;5.47;;;;;;;;;;4935701;29;20548;-82
2021/07/03 13:32:49;;;;;;;9.25;5.68;;;;;;;;;;4934690;29;20277;-81
2021/07/03 13:35:35;;;;;;;12.25;6.03;;;;;;;;;;4930548;29;20719;-81
2021/07/03 13:38:20;;;;;;;7.70;5.00;;;;;;;;;;4931654;29;20451;-82
2021/07/03 13:41:06;;;;;;;9.25;5.60;;;;;;;;;;4933766;29;20115;-82
2021/07/03 13:43:51;;;;;;;7.47;5.05;;;;;;;;;;4929261;29;20155;-82
2021/07/03 13:46:37;;;;;;;7.40;5.03;;;;;;;;;;4937738;29;20509;-81
2021/07/03 13:49:22;;;;;;;7.13;5.13;;;;;;;;;;4933310;29;20027;-82
2021/07/03 13:52:07;;;;;;;8.73;5.47;;;;;;;;;;4928790;29;20035;-82
2021/07/03 13:54:53;;;;;;;9.02;6.85;;;;;;;;;;4929888;29;20032;-82
2021/07/03 13:57:38;;;;;;;9.32;8.02;;;;;;;;;;4931322;29;20090;-82
2021/07/03 14:00:23;;;;;;;21.38;19.15;;;;;;;;;;4913131;29;20032;-83
2021/07/03 14:03:09;;;;;;;20.00;17.77;;;;;;;;;;4934461;29;20023;-82
2021/07/03 14:05:54;;;;;;;65.28;58.38;;;;;;;;;;4926332;29;20030;-82
2021/07/03 14:08:41;;;;;;;41.10;36.78;;;;;;;;;;4925549;29;20467;-82
2021/07/03 14:11:26;;;;;;;30.17;26.33;;;;;;;;;;4927296;29;20038;-82
2021/07/03 14:14:12;;;;;;;25.98;22.90;;;;;;;;;;4929607;29;20058;-82
2021/07/03 14:16:57;;;;;;;25.20;22.50;;;;;;;;;;4930428;29;20043;-83
2021/07/03 14:19:42;;;;;;;22.05;19.75;;;;;;;;;;4936044;29;20044;-83
2021/07/03 14:22:27;;;;;;;35.22;31.55;;;;;;;;;;4930975;29;20027;-81
2021/07/03 14:25:13;;;;;;;250.20;223.23;;;;;;;;;;4932087;29;20023;-81
2021/07/03 14:27:58;;;;;;;104.47;93.32;;;;;;;;;;4921360;29;20023;-82
2021/07/03 14:30:43;;;;;;;145.05;130.23;;;;;;;;;;4934019;29;20027;-81
2021/07/03 14:33:29;;;;;;;38.67;33.85;;;;;;;;;;4935385;29;20026;-82
2021/07/03 14:36:14;;;;;;;50.30;42.40;;;;;;;;;;4915868;29;20423;-82
2021/07/03 14:38:59;;;;;;;78.53;67.43;;;;;;;;;;4931760;29;20027;-82
2021/07/03 14:41:44;;;;;;;60.17;52.63;;;;;;;;;;4930262;29;20055;-82
2021/07/03 14:44:30;;;;;;;122.40;101.50;;;;;;;;;;4929833;29;20098;-82
2021/07/03 14:47:19;;;;;;;107.85;89.03;;;;;;;;;;4931804;29;20129;-81
2021/07/03 14:50:04;;;;;;;44.42;39.60;;;;;;;;;;4936918;29;20094;-81
2021/07/03 14:52:50;;;;;;;23.40;20.30;;;;;;;;;;4932568;29;20027;-83
2021/07/03 14:55:36;;;;;;;40.25;35.88;;;;;;;;;;4924625;29;20115;-85
2021/07/03 14:58:21;;;;;;;24.98;22.27;;;;;;;;;;4930284;29;20039;-82
2021/07/03 15:01:06;;;;;;;12.23;10.52;;;;;;;;;;4933708;29;20105;-81
2021/07/03 15:03:52;;;;;;;14.32;11.90;;;;;;;;;;4930575;29;20055;-81
2021/07/03 15:06:37;;;;;;;26.23;22.73;;;;;;;;;;4930161;29;20076;-80
2021/07/03 15:09:22;;;;;;;22.10;16.67;;;;;;;;;;4927371;29;20506;-80
2021/07/03 15:12:07;;;;;;;37.08;31.33;;;;;;;;;;4928097;29;20746;-79
2021/07/03 15:14:53;;;;;;;14.65;8.80;;;;;;;;;;4922756;29;20039;-80
2021/07/03 15:17:38;;;;;;;12.13;9.20;;;;;;;;;;4921397;29;20380;-80
2021/07/03 15:20:24;;;;;;;8.85;5.78;;;;;;;;;;4904396;29;20614;-87
2021/07/03 15:23:09;;;;;;;19.00;15.00;;;;;;;;;;4936445;28;20094;-86
2021/07/03 15:25:55;;;;;;;11.85;9.98;;;;;;;;;;4932704;29;20537;-85
2021/07/03 15:28:40;;;;;;;26.95;20.73;;;;;;;;;;4922954;29;20039;-85
2021/07/03 15:31:25;;;;;;;7.60;5.55;;;;;;;;;;4917575;29;20551;-88
2021/07/03 15:34:10;;;;;;;9.25;5.90;;;;;;;;;;4929824;29;20558;-86
2021/07/03 15:36:56;;;;;;;9.20;6.07;;;;;;;;;;4924130;29;20055;-87
2021/07/03 15:39:41;;;;;;;8.05;5.70;;;;;;;;;;4923104;29;20032;-84
2021/07/03 15:42:29;;;;;;;14.75;9.48;;;;;;;;;;4927912;29;20032;-84
2021/07/03 15:45:15;;;;;;;9.55;5.93;;;;;;;;;;4926108;29;20024;-86
2021/07/03 15:48:00;;;;;;;9.00;6.35;;;;;;;;;;4930093;29;20023;-85
2021/07/03 15:50:45;;;;;;;11.18;5.85;;;;;;;;;;4933356;29;20027;-84
2021/07/03 15:53:30;;;;;;;10.07;7.25;;;;;;;;;;4910309;29;20049;-84
2021/07/03 15:56:16;;;;;;;30.20;23.15;;;;;;;;;;4919807;29;20051;-85
2021/07/03 15:59:01;;;;;;;29.52;23.42;;;;;;;;;;4928561;29;20072;-85
2021/07/03 16:01:46;;;;;;;41.92;27.90;;;;;;;;;;4928828;29;20556;-82
2021/07/03 16:04:32;;;;;;;18.95;15.43;;;;;;;;;;4924982;29;20030;-84
2021/07/03 16:07:17;;;;;;;10.52;8.45;;;;;;;;;;4917353;29;20091;-86
2021/07/03 16:10:03;;;;;;;12.45;7.82;;;;;;;;;;4932263;29;20056;-85
2021/07/03 16:12:49;;;;;;;18.60;12.15;;;;;;;;;;4930112;29;20199;-86
2021/07/03 16:15:35;;;;;;;29.98;21.40;;;;;;;;;;4930567;29;20260;-86
2021/07/03 16:18:20;;;;;;;92.88;65.25;;;;;;;;;;4922398;29;20078;-86
2021/07/03 16:21:05;;;;;;;374.35;306.00;;;;;;;;;;4927532;29;20032;-88
2021/07/03 16:23:50;;;;;;;569.78;483.33;;;;;;;;;;4934513;29;20019;-86